Terminal Aerodrome Forecast
Issued by NWS Buffalo, NY

Home | Current Version | Previous Version | Text Only | Print | Product List | Glossary On
Versions: 1 2 3 4 5 6 7 8 9 10 11 12 13 14 15 16 17 18 19 20 21 22 23 24 25 26 27 28 29 30
000
FTUS41 KBUF 310900 AAB
TAFBUF
TAF AMD
KBUF 310904Z 3109/0106 21012KT 6SM -RA OVC035
      TEMPO 3109/3111 3SM RA BR OVC025
     FM311300 22013KT P6SM -SHRA OVC045
     FM311700 23014KT P6SM VCSH BKN050
     FM311900 24018G24KT P6SM SCT120
     FM010000 23010KT P6SM SCT250=

USA.gov is the U.S. government's official web portal to all federal, state and local government web resources and services.